sensor_id;sensor_type;location;lat;lon;timestamp;pressure;altitude;pressure_sealevel;temperature;humidity
36062;BME280;22123;52.412;20.970;2022-11-20T00:01:11;100654.22;;;-5.32;100.00
36062;BME280;22123;52.412;20.970;2022-11-20T00:03:37;100657.72;;;-5.31;100.00
36062;BME280;22123;52.412;20.970;2022-11-20T00:06:03;100650.00;;;-5.36;100.00
36062;BME280;22123;52.412;20.970;2022-11-20T00:08:28;100654.34;;;-5.35;100.00
36062;BME280;22123;52.412;20.970;2022-11-20T00:10:53;100652.63;;;-5.36;100.00
36062;BME280;22123;52.412;20.970;2022-11-20T00:13:19;100649.22;;;-5.38;100.00
36062;BME280;22123;52.412;20.970;2022-11-20T00:15:44;100655.31;;;-5.37;100.00
36062;BME280;22123;52.412;20.970;2022-11-20T00:18:09;100651.84;;;-5.38;100.00
36062;BME280;22123;52.412;20.970;2022-11-20T00:20:34;100652.84;;;-5.41;100.00
36062;BME280;22123;52.412;20.970;2022-11-20T00:23:00;100650.34;;;-5.44;100.00
36062;BME280;22123;52.412;20.970;2022-11-20T00:25:25;100654.94;;;-5.49;100.00
36062;BME280;22123;52.412;20.970;2022-11-20T00:27:50;100661.94;;;-5.49;100.00
36062;BME280;22123;52.412;20.970;2022-11-20T00:30:15;100658.53;;;-5.51;100.00
36062;BME280;22123;52.412;20.970;2022-11-20T00:32:41;100661.31;;;-5.54;100.00
36062;BME280;22123;52.412;20.970;2022-11-20T00:35:06;100664.09;;;-5.59;100.00
36062;BME280;22123;52.412;20.970;2022-11-20T00:37:31;100651.84;;;-5.59;100.00
36062;BME280;22123;52.412;20.970;2022-11-20T00:39:56;100662.28;;;-5.57;100.00
36062;BME280;22123;52.412;20.970;2022-11-20T00:42:22;100653.56;;;-5.57;100.00
36062;BME280;22123;52.412;20.970;2022-11-20T00:44:47;100659.59;;;-5.55;100.00
36062;BME280;22123;52.412;20.970;2022-11-20T00:47:12;100656.00;;;-5.53;100.00
36062;BME280;22123;52.412;20.970;2022-11-20T00:49:37;100652.38;;;-5.50;100.00
36062;BME280;22123;52.412;20.970;2022-11-20T00:52:03;100659.31;;;-5.49;100.00
36062;BME280;22123;52.412;20.970;2022-11-20T00:54:28;100661.88;;;-5.48;100.00
36062;BME280;22123;52.412;20.970;2022-11-20T00:56:53;100650.34;;;-5.44;100.00
36062;BME280;22123;52.412;20.970;2022-11-20T00:59:18;100649.38;;;-5.41;100.00
36062;BME280;22123;52.412;20.970;2022-11-20T01:01:44;100638.72;;;-5.38;100.00
36062;BME280;22123;52.412;20.970;2022-11-20T01:04:09;100638.59;;;-5.35;100.00
36062;BME280;22123;52.412;20.970;2022-11-20T01:06:35;100629.88;;;-5.35;100.00
36062;BME280;22123;52.412;20.970;2022-11-20T01:09:03;100640.25;;;-5.32;100.00
36062;BME280;22123;52.412;20.970;2022-11-20T01:11:33;100633.22;;;-5.32;100.00
36062;BME280;22123;52.412;20.970;2022-11-20T01:14:00;100634.16;;;-5.33;100.00
36062;BME280;22123;52.412;20.970;2022-11-20T01:16:32;100628.91;;;-5.33;100.00
36062;BME280;22123;52.412;20.970;2022-11-20T01:18:58;100614.19;;;-5.37;100.00
36062;BME280;22123;52.412;20.970;2022-11-20T01:21:27;100619.53;;;-5.38;100.00
36062;BME280;22123;52.412;20.970;2022-11-20T01:23:53;100623.97;;;-5.41;100.00
36062;BME280;22123;52.412;20.970;2022-11-20T01:26:19;100616.16;;;-5.42;100.00
36062;BME280;22123;52.412;20.970;2022-11-20T01:28:45;100608.22;;;-5.41;100.00
36062;BME280;22123;52.412;20.970;2022-11-20T01:31:17;100609.09;;;-5.40;100.00
36062;BME280;22123;52.412;20.970;2022-11-20T01:33:43;100609.88;;;-5.38;100.00
36062;BME280;22123;52.412;20.970;2022-11-20T01:36:09;100610.78;;;-5.39;100.00
36062;BME280;22123;52.412;20.970;2022-11-20T01:38:35;100608.16;;;-5.39;100.00
36062;BME280;22123;52.412;20.970;2022-11-20T01:41:00;100617.75;;;-5.38;100.00
36062;BME280;22123;52.412;20.970;2022-11-20T01:43:25;100621.19;;;-5.37;100.00
36062;BME280;22123;52.412;20.970;2022-11-20T01:48:28;100622.66;;;-5.30;100.00
36062;BME280;22123;52.412;20.970;2022-11-20T01:50:55;100622.72;;;-5.32;100.00
36062;BME280;22123;52.412;20.970;2022-11-20T01:53:23;100631.47;;;-5.31;100.00
36062;BME280;22123;52.412;20.970;2022-11-20T01:55:54;100628.75;;;-5.30;100.00
36062;BME280;22123;52.412;20.970;2022-11-20T01:58:20;100621.03;;;-5.33;100.00
36062;BME280;22123;52.412;20.970;2022-11-20T02:00:47;100627.81;;;-5.29;100.00
36062;BME280;22123;52.412;20.970;2022-11-20T02:03:13;100618.13;;;-5.27;100.00
36062;BME280;22123;52.412;20.970;2022-11-20T02:08:05;100618.75;;;-5.21;100.00
36062;BME280;22123;52.412;20.970;2022-11-20T02:10:31;100624.88;;;-5.21;100.00
36062;BME280;22123;52.412;20.970;2022-11-20T02:12:57;100621.28;;;-5.18;100.00
36062;BME280;22123;52.412;20.970;2022-11-20T02:15:41;100616.94;;;-5.19;100.00
36062;BME280;22123;52.412;20.970;2022-11-20T02:18:07;100609.84;;;-5.17;100.00
36062;BME280;22123;52.412;20.970;2022-11-20T02:20:33;100603.53;;;-5.13;100.00
36062;BME280;22123;52.412;20.970;2022-11-20T02:22:59;100603.59;;;-5.15;100.00
36062;BME280;22123;52.412;20.970;2022-11-20T02:25:26;100604.50;;;-5.16;100.00
36062;BME280;22123;52.412;20.970;2022-11-20T02:27:52;100606.31;;;-5.16;100.00
36062;BME280;22123;52.412;20.970;2022-11-20T02:30:18;100600.97;;;-5.15;100.00
36062;BME280;22123;52.412;20.970;2022-11-20T02:32:43;100604.38;;;-5.13;100.00
36062;BME280;22123;52.412;20.970;2022-11-20T02:37:43;100601.75;;;-5.13;100.00
36062;BME280;22123;52.412;20.970;2022-11-20T02:40:09;100604.34;;;-5.11;100.00
36062;BME280;22123;52.412;20.970;2022-11-20T02:42:35;100597.31;;;-5.11;100.00
36062;BME280;22123;52.412;20.970;2022-11-20T02:45:01;100606.00;;;-5.10;100.00
36062;BME280;22123;52.412;20.970;2022-11-20T02:47:26;100596.47;;;-5.11;100.00
36062;BME280;22123;52.412;20.970;2022-11-20T02:49:51;100601.72;;;-5.11;100.00
36062;BME280;22123;52.412;20.970;2022-11-20T02:52:16;100610.28;;;-5.08;100.00
36062;BME280;22123;52.412;20.970;2022-11-20T02:54:42;100609.31;;;-5.05;100.00
36062;BME280;22123;52.412;20.970;2022-11-20T02:57:07;100614.47;;;-5.03;100.00
36062;BME280;22123;52.412;20.970;2022-11-20T02:59:32;100605.72;;;-5.04;100.00
36062;BME280;22123;52.412;20.970;2022-11-20T03:01:57;100610.28;;;-5.08;100.00
36062;BME280;22123;52.412;20.970;2022-11-20T03:04:23;100605.94;;;-5.09;100.00
36062;BME280;22123;52.412;20.970;2022-11-20T03:06:48;100609.31;;;-5.05;100.00
36062;BME280;22123;52.412;20.970;2022-11-20T03:09:13;100606.53;;;-5.02;100.00
36062;BME280;22123;52.412;20.970;2022-11-20T03:11:38;100599.44;;;-5.00;100.00
36062;BME280;22123;52.412;20.970;2022-11-20T03:14:04;100604.53;;;-4.97;100.00
36062;BME280;22123;52.412;20.970;2022-11-20T03:16:30;100606.25;;;-4.96;100.00
36062;BME280;22123;52.412;20.970;2022-11-20T03:18:55;100601.00;;;-4.96;100.00
36062;BME280;22123;52.412;20.970;2022-11-20T03:21:20;100598.38;;;-4.96;100.00
36062;BME280;22123;52.412;20.970;2022-11-20T03:23:45;100597.59;;;-4.98;100.00
36062;BME280;22123;52.412;20.970;2022-11-20T03:26:13;100598.44;;;-4.97;100.00
36062;BME280;22123;52.412;20.970;2022-11-20T03:28:39;100598.44;;;-4.97;100.00
36062;BME280;22123;52.412;20.970;2022-11-20T03:31:11;100604.59;;;-4.98;100.00
36062;BME280;22123;52.412;20.970;2022-11-20T03:33:37;100596.81;;;-5.00;100.00
36062;BME280;22123;52.412;20.970;2022-11-20T03:36:03;100603.00;;;-5.01;100.00
36062;BME280;22123;52.412;20.970;2022-11-20T03:38:29;100599.56;;;-5.03;100.00
36062;BME280;22123;52.412;20.970;2022-11-20T03:41:02;100588.28;;;-5.05;100.00
36062;BME280;22123;52.412;20.970;2022-11-20T03:43:28;100589.06;;;-5.03;100.00
36062;BME280;22123;52.412;20.970;2022-11-20T03:45:53;100587.31;;;-5.02;100.00
36062;BME280;22123;52.412;20.970;2022-11-20T03:48:18;100593.47;;;-5.03;100.00
36062;BME280;22123;52.412;20.970;2022-11-20T03:50:44;100583.81;;;-5.03;100.00
36062;BME280;22123;52.412;20.970;2022-11-20T03:53:09;100589.06;;;-5.03;100.00
36062;BME280;22123;52.412;20.970;2022-11-20T03:55:34;100588.22;;;-5.03;100.00
36062;BME280;22123;52.412;20.970;2022-11-20T03:57:59;100588.38;;;-5.07;100.00
36062;BME280;22123;52.412;20.970;2022-11-20T04:00:24;100580.50;;;-5.07;100.00
36062;BME280;22123;52.412;20.970;2022-11-20T04:02:50;100583.19;;;-5.08;100.00
36062;BME280;22123;52.412;20.970;2022-11-20T04:05:15;100592.88;;;-5.10;100.00
36062;BME280;22123;52.412;20.970;2022-11-20T04:07:40;100586.88;;;-5.12;100.00
36062;BME280;22123;52.412;20.970;2022-11-20T04:10:06;100582.53;;;-5.13;100.00
36062;BME280;22123;52.412;20.970;2022-11-20T04:12:32;100585.16;;;-5.13;100.00
36062;BME280;22123;52.412;20.970;2022-11-20T04:14:57;100583.44;;;-5.14;100.00
36062;BME280;22123;52.412;20.970;2022-11-20T04:17:22;100585.16;;;-5.13;100.00
36062;BME280;22123;52.412;20.970;2022-11-20T04:19:47;100589.56;;;-5.14;100.00
36062;BME280;22123;52.412;20.970;2022-11-20T04:22:13;100587.91;;;-5.16;100.00
36062;BME280;22123;52.412;20.970;2022-11-20T04:24:38;100580.06;;;-5.16;100.00
36062;BME280;22123;52.412;20.970;2022-11-20T04:27:03;100576.66;;;-5.18;100.00
36062;BME280;22123;52.412;20.970;2022-11-20T04:29:28;100584.56;;;-5.20;100.00
36062;BME280;22123;52.412;20.970;2022-11-20T04:31:54;100582.00;;;-5.21;100.00
36062;BME280;22123;52.412;20.970;2022-11-20T04:34:19;100584.78;;;-5.25;100.00
36062;BME280;22123;52.412;20.970;2022-11-20T04:36:44;100578.81;;;-5.28;100.00
36062;BME280;22123;52.412;20.970;2022-11-20T04:39:13;100577.19;;;-5.31;100.00
36062;BME280;22123;52.412;20.970;2022-11-20T04:41:39;100579.88;;;-5.32;100.00
36062;BME280;22123;52.412;20.970;2022-11-20T04:44:05;100591.22;;;-5.32;100.00
36062;BME280;22123;52.412;20.970;2022-11-20T04:46:31;100579.81;;;-5.31;100.00
36062;BME280;22123;52.412;20.970;2022-11-20T04:48:56;100582.50;;;-5.32;100.00
36062;BME280;22123;52.412;20.970;2022-11-20T04:51:22;100583.28;;;-5.30;100.00
36062;BME280;22123;52.412;20.970;2022-11-20T04:53:47;100579.88;;;-5.32;100.00
36062;BME280;22123;52.412;20.970;2022-11-20T04:56:13;100578.38;;;-5.38;100.00
36062;BME280;22123;52.412;20.970;2022-11-20T04:58:38;100577.84;;;-5.46;100.00
36062;BME280;22123;52.412;20.970;2022-11-20T05:01:05;100573.00;;;-5.55;100.00
36062;BME280;22123;52.412;20.970;2022-11-20T05:03:31;100572.47;;;-5.64;100.00
36062;BME280;22123;52.412;20.970;2022-11-20T05:05:56;100569.44;;;-5.73;100.00
36062;BME280;22123;52.412;20.970;2022-11-20T05:08:24;100567.09;;;-5.81;100.00
36062;BME280;22123;52.412;20.970;2022-11-20T05:10:49;100566.47;;;-5.86;100.00
36062;BME280;22123;52.412;20.970;2022-11-20T05:13:14;100564.88;;;-5.90;100.00
36062;BME280;22123;52.412;20.970;2022-11-20T05:15:40;100561.53;;;-5.94;100.00
36062;BME280;22123;52.412;20.970;2022-11-20T05:18:05;100560.84;;;-5.98;100.00
36062;BME280;22123;52.412;20.970;2022-11-20T05:20:30;100560.19;;;-6.03;100.00
36062;BME280;22123;52.412;20.970;2022-11-20T05:22:58;100553.56;;;-6.12;100.00
36062;BME280;22123;52.412;20.970;2022-11-20T05:25:24;100554.72;;;-6.19;100.00
36062;BME280;22123;52.412;20.970;2022-11-20T05:27:49;100551.56;;;-6.27;100.00
36062;BME280;22123;52.412;20.970;2022-11-20T05:30:14;100550.91;;;-6.32;100.00
36062;BME280;22123;52.412;20.970;2022-11-20T05:32:39;100557.25;;;-6.38;100.00
36062;BME280;22123;52.412;20.970;2022-11-20T05:35:05;100562.59;;;-6.41;100.00
36062;BME280;22123;52.412;20.970;2022-11-20T05:37:30;100561.00;;;-6.45;100.00
36062;BME280;22123;52.412;20.970;2022-11-20T05:39:55;100553.34;;;-6.50;100.00
36062;BME280;22123;52.412;20.970;2022-11-20T05:42:20;100553.34;;;-6.50;100.00
36062;BME280;22123;52.412;20.970;2022-11-20T05:45:00;100556.94;;;-6.52;100.00
36062;BME280;22123;52.412;20.970;2022-11-20T05:47:26;100552.66;;;-6.55;100.00
36062;BME280;22123;52.412;20.970;2022-11-20T05:49:52;100556.22;;;-6.56;100.00
36062;BME280;22123;52.412;20.970;2022-11-20T05:52:17;100554.50;;;-6.57;100.00
36062;BME280;22123;52.412;20.970;2022-11-20T05:54:42;100559.75;;;-6.57;100.00
36062;BME280;22123;52.412;20.970;2022-11-20T05:57:07;100555.59;;;-6.62;100.00
36062;BME280;22123;52.412;20.970;2022-11-20T05:59:33;100547.06;;;-6.68;100.00
36062;BME280;22123;52.412;20.970;2022-11-20T06:01:58;100543.78;;;-6.73;100.00
36062;BME280;22123;52.412;20.970;2022-11-20T06:04:23;100539.50;;;-6.75;100.00
36062;BME280;22123;52.412;20.970;2022-11-20T06:06:48;100532.75;;;-6.81;100.00
36062;BME280;22123;52.412;20.970;2022-11-20T06:09:14;100527.69;;;-6.86;100.00
36062;BME280;22123;52.412;20.970;2022-11-20T06:11:39;100538.22;;;-6.87;100.00
36062;BME280;22123;52.412;20.970;2022-11-20T06:14:04;100539.19;;;-6.90;100.00
36062;BME280;22123;52.412;20.970;2022-11-20T06:16:29;100543.59;;;-6.90;100.00
36062;BME280;22123;52.412;20.970;2022-11-20T06:18:55;100552.47;;;-6.94;100.00
36062;BME280;22123;52.412;20.970;2022-11-20T06:21:20;100545.56;;;-6.97;100.00
36062;BME280;22123;52.412;20.970;2022-11-20T06:23:46;100557.81;;;-6.97;100.00
36062;BME280;22123;52.412;20.970;2022-11-20T06:26:13;100551.63;;;-6.95;100.00
36062;BME280;22123;52.412;20.970;2022-11-20T06:28:39;100549.78;;;-6.93;100.00
36062;BME280;22123;52.412;20.970;2022-11-20T06:31:04;100550.63;;;-6.92;100.00
36062;BME280;22123;52.412;20.970;2022-11-20T06:33:30;100554.06;;;-6.90;100.00
36062;BME280;22123;52.412;20.970;2022-11-20T06:35:58;100539.94;;;-6.86;100.00
36062;BME280;22123;52.412;20.970;2022-11-20T06:38:24;100541.53;;;-6.82;100.00
36062;BME280;22123;52.412;20.970;2022-11-20T06:40:50;100532.63;;;-6.78;100.00
36062;BME280;22123;52.412;20.970;2022-11-20T06:43:15;100529.72;;;-6.70;100.00
36062;BME280;22123;52.412;20.970;2022-11-20T06:45:40;100539.94;;;-6.64;100.00
36062;BME280;22123;52.412;20.970;2022-11-20T06:48:05;100525.69;;;-6.57;100.00
36062;BME280;22123;52.412;20.970;2022-11-20T06:50:31;100528.81;;;-6.47;100.00
36062;BME280;22123;52.412;20.970;2022-11-20T06:52:56;100531.09;;;-6.39;100.00
36062;BME280;22123;52.412;20.970;2022-11-20T06:55:21;100535.31;;;-6.35;100.00
36062;BME280;22123;52.412;20.970;2022-11-20T06:57:46;100532.50;;;-6.31;100.00
36062;BME280;22123;52.412;20.970;2022-11-20T07:00:12;100528.00;;;-6.27;100.00
36062;BME280;22123;52.412;20.970;2022-11-20T07:02:38;100526.88;;;-6.21;100.00
36062;BME280;22123;52.412;20.970;2022-11-20T07:05:03;100524.06;;;-6.17;100.00
36062;BME280;22123;52.412;20.970;2022-11-20T07:07:29;100529.81;;;-6.08;100.00
36062;BME280;22123;52.412;20.970;2022-11-20T07:09:54;100530.44;;;-6.02;100.00
36062;BME280;22123;52.412;20.970;2022-11-20T07:12:19;100533.75;;;-5.98;100.00
36062;BME280;22123;52.412;20.970;2022-11-20T07:14:44;100536.31;;;-5.97;100.00
36062;BME280;22123;52.412;20.970;2022-11-20T07:17:10;100543.97;;;-5.92;100.00
36062;BME280;22123;52.412;20.970;2022-11-20T07:19:35;100530.66;;;-5.87;100.00
36062;BME280;22123;52.412;20.970;2022-11-20T07:22:00;100526.06;;;-5.82;100.00
36062;BME280;22123;52.412;20.970;2022-11-20T07:24:25;100528.44;;;-5.76;100.00
36062;BME280;22123;52.412;20.970;2022-11-20T07:26:50;100529.94;;;-5.70;100.00
36062;BME280;22123;52.412;20.970;2022-11-20T07:29:16;100525.28;;;-5.64;100.00
36062;BME280;22123;52.412;20.970;2022-11-20T07:31:41;100523.16;;;-5.55;100.00
36062;BME280;22123;52.412;20.970;2022-11-20T07:34:07;100522.81;;;-5.48;100.00
36062;BME280;22123;52.412;20.970;2022-11-20T07:36:32;100513.53;;;-5.36;100.00
36062;BME280;22123;52.412;20.970;2022-11-20T07:38:57;100500.78;;;-5.25;100.00
36062;BME280;22123;52.412;20.970;2022-11-20T07:41:22;100507.91;;;-5.08;100.00
36062;BME280;22123;52.412;20.970;2022-11-20T07:43:47;100500.06;;;-4.90;100.00
36062;BME280;22123;52.412;20.970;2022-11-20T07:46:13;100499.78;;;-4.65;100.00
36062;BME280;22123;52.412;20.970;2022-11-20T07:48:38;100498.41;;;-4.37;100.00
36062;BME280;22123;52.412;20.970;2022-11-20T07:51:03;100503.84;;;-4.23;100.00
36062;BME280;22123;52.412;20.970;2022-11-20T07:53:28;100515.59;;;-4.12;100.00
36062;BME280;22123;52.412;20.970;2022-11-20T07:55:54;100503.91;;;-4.07;100.00
36062;BME280;22123;52.412;20.970;2022-11-20T07:58:19;100505.25;;;-3.98;100.00
36062;BME280;22123;52.412;20.970;2022-11-20T08:00:45;100505.59;;;-3.88;100.00
36062;BME280;22123;52.412;20.970;2022-11-20T08:03:10;100512.03;;;-3.76;100.00
36062;BME280;22123;52.412;20.970;2022-11-20T08:05:36;100515.56;;;-3.60;100.00
36062;BME280;22123;52.412;20.970;2022-11-20T08:08:02;100511.25;;;-3.45;100.00
36062;BME280;22123;52.412;20.970;2022-11-20T08:10:27;100506.28;;;-3.34;100.00
36062;BME280;22123;52.412;20.970;2022-11-20T08:12:52;100508.56;;;-3.27;100.00
36062;BME280;22123;52.412;20.970;2022-11-20T08:15:41;100518.09;;;-3.25;100.00
36062;BME280;22123;52.412;20.970;2022-11-20T08:18:07;100508.25;;;-3.21;100.00
36062;BME280;22123;52.412;20.970;2022-11-20T08:20:33;100504.19;;;-3.11;100.00
36062;BME280;22123;52.412;20.970;2022-11-20T08:23:02;100502.31;;;-3.09;100.00
36062;BME280;22123;52.412;20.970;2022-11-20T08:25:29;100490.31;;;-3.15;100.00
36062;BME280;22123;52.412;20.970;2022-11-20T08:27:56;100499.41;;;-3.20;100.00
36062;BME280;22123;52.412;20.970;2022-11-20T08:30:21;100486.50;;;-3.25;100.00
36062;BME280;22123;52.412;20.970;2022-11-20T08:32:47;100491.69;;;-3.23;100.00
36062;BME280;22123;52.412;20.970;2022-11-20T08:35:12;100493.22;;;-3.19;100.00
36062;BME280;22123;52.412;20.970;2022-11-20T08:37:37;100491.44;;;-3.03;100.00
36062;BME280;22123;52.412;20.970;2022-11-20T08:40:06;100482.78;;;-2.89;100.00
36062;BME280;22123;52.412;20.970;2022-11-20T08:42:32;100485.50;;;-2.74;100.00
36062;BME280;22123;52.412;20.970;2022-11-20T08:44:57;100474.78;;;-2.71;100.00
36062;BME280;22123;52.412;20.970;2022-11-20T08:47:22;100475.78;;;-2.74;100.00
36062;BME280;22123;52.412;20.970;2022-11-20T08:49:48;100467.41;;;-2.81;100.00
36062;BME280;22123;52.412;20.970;2022-11-20T08:52:13;100479.22;;;-2.88;100.00
36062;BME280;22123;52.412;20.970;2022-11-20T08:54:38;100480.22;;;-2.90;100.00
36062;BME280;22123;52.412;20.970;2022-11-20T08:57:03;100477.25;;;-2.84;100.00
36062;BME280;22123;52.412;20.970;2022-11-20T08:59:29;100472.75;;;-2.82;100.00
36062;BME280;22123;52.412;20.970;2022-11-20T09:01:55;100468.16;;;-2.78;100.00
36062;BME280;22123;52.412;20.970;2022-11-20T09:04:21;100468.84;;;-2.75;100.00
36062;BME280;22123;52.412;20.970;2022-11-20T09:06:46;100460.75;;;-2.72;100.00
36062;BME280;22123;52.412;20.970;2022-11-20T09:09:15;100460.41;;;-2.66;100.00
36062;BME280;22123;52.412;20.970;2022-11-20T09:11:41;100460.13;;;-2.61;100.00
36062;BME280;22123;52.412;20.970;2022-11-20T09:14:06;100467.72;;;-2.55;100.00
36062;BME280;22123;52.412;20.970;2022-11-20T09:16:31;100455.88;;;-2.48;100.00
36062;BME280;22123;52.412;20.970;2022-11-20T09:18:56;100459.75;;;-2.39;100.00
36062;BME280;22123;52.412;20.970;2022-11-20T09:21:22;100453.19;;;-2.32;100.00
36062;BME280;22123;52.412;20.970;2022-11-20T09:23:48;100457.81;;;-2.21;100.00
36062;BME280;22123;52.412;20.970;2022-11-20T09:26:14;100450.03;;;-2.08;100.00
36062;BME280;22123;52.412;20.970;2022-11-20T09:28:39;100448.44;;;-1.96;100.00
36062;BME280;22123;52.412;20.970;2022-11-20T09:31:08;100444.28;;;-2.00;100.00
36062;BME280;22123;52.412;20.970;2022-11-20T09:33:34;100439.38;;;-2.06;100.00
36062;BME280;22123;52.412;20.970;2022-11-20T09:36:00;100435.22;;;-2.11;100.00
36062;BME280;22123;52.412;20.970;2022-11-20T09:38:25;100442.50;;;-2.14;100.00
36062;BME280;22123;52.412;20.970;2022-11-20T09:40:58;100440.00;;;-2.17;100.00
36062;BME280;22123;52.412;20.970;2022-11-20T09:43:42;100435.50;;;-2.15;100.00
36062;BME280;22123;52.412;20.970;2022-11-20T09:51:30;100430.66;;;-1.93;100.00
36062;BME280;22123;52.412;20.970;2022-11-20T09:54:06;100433.66;;;-1.84;100.00
36062;BME280;22123;52.412;20.970;2022-11-20T09:56:36;100434.06;;;-1.62;100.00
36062;BME280;22123;52.412;20.970;2022-11-20T09:59:04;100427.84;;;-1.46;100.00
36062;BME280;22123;52.412;20.970;2022-11-20T10:01:35;100425.91;;;-1.30;100.00
36062;BME280;22123;52.412;20.970;2022-11-20T10:04:03;100421.84;;;-1.21;100.00
36062;BME280;22123;52.412;20.970;2022-11-20T10:06:33;100416.06;;;-1.13;100.00
36062;BME280;22123;52.412;20.970;2022-11-20T10:11:48;100418.97;;;-1.03;100.00
36062;BME280;22123;52.412;20.970;2022-11-20T10:17:09;100417.84;;;-1.14;100.00
36062;BME280;22123;52.412;20.970;2022-11-20T10:19:41;100421.00;;;-1.21;100.00
36062;BME280;22123;52.412;20.970;2022-11-20T10:30:07;100409.88;;;-1.27;100.00
36062;BME280;22123;52.412;20.970;2022-11-20T10:32:35;100409.97;;;-1.28;100.00
36062;BME280;22123;52.412;20.970;2022-11-20T10:37:31;100405.06;;;-1.34;100.00
36062;BME280;22123;52.412;20.970;2022-11-20T10:42:46;100400.91;;;-1.24;100.00
36062;BME280;22123;52.412;20.970;2022-11-20T10:47:49;100402.47;;;-1.07;100.00
36062;BME280;22123;52.412;20.970;2022-11-20T10:50:18;100402.06;;;-1.01;100.00
36062;BME280;22123;52.412;20.970;2022-11-20T10:55:30;100398.41;;;-0.85;100.00
36062;BME280;22123;52.412;20.970;2022-11-20T10:58:09;100395.91;;;-0.74;100.00
36062;BME280;22123;52.412;20.970;2022-11-20T11:00:35;100388.22;;;-0.64;100.00
36062;BME280;22123;52.412;20.970;2022-11-20T11:03:00;100388.56;;;-0.56;100.00
36062;BME280;22123;52.412;20.970;2022-11-20T11:05:33;100394.09;;;-0.46;100.00
36062;BME280;22123;52.412;20.970;2022-11-20T11:08:01;100386.91;;;-0.31;100.00
36062;BME280;22123;52.412;20.970;2022-11-20T11:13:24;100375.81;;;-0.11;100.00
36062;BME280;22123;52.412;20.970;2022-11-20T11:15:49;100367.97;;;0.01;100.00
36062;BME280;22123;52.412;20.970;2022-11-20T11:20:49;100367.88;;;0.15;100.00
36062;BME280;22123;52.412;20.970;2022-11-20T11:23:25;100370.72;;;0.25;100.00
36062;BME280;22123;52.412;20.970;2022-11-20T11:25:58;100363.72;;;0.37;100.00
36062;BME280;22123;52.412;20.970;2022-11-20T11:28:24;100369.25;;;0.58;100.00
36062;BME280;22123;52.412;20.970;2022-11-20T11:30:52;100361.50;;;0.67;100.00
36062;BME280;22123;52.412;20.970;2022-11-20T11:33:24;100360.72;;;0.78;100.00
36062;BME280;22123;52.412;20.970;2022-11-20T11:35:50;100360.81;;;0.77;100.00
36062;BME280;22123;52.412;20.970;2022-11-20T11:40:56;100358.50;;;0.72;100.00
36062;BME280;22123;52.412;20.970;2022-11-20T11:43:23;100359.41;;;0.60;100.00
36062;BME280;22123;52.412;20.970;2022-11-20T11:46:30;100357.81;;;0.57;100.00
36062;BME280;22123;52.412;20.970;2022-11-20T11:48:54;100354.84;;;0.62;100.00
36062;BME280;22123;52.412;20.970;2022-11-20T11:51:20;100354.50;;;0.66;100.00
36062;BME280;22123;52.412;20.970;2022-11-20T11:53:45;100349.84;;;0.70;100.00
36062;BME280;22123;52.412;20.970;2022-11-20T11:56:11;100341.78;;;0.72;100.00
36062;BME280;22123;52.412;20.970;2022-11-20T12:04:40;100345.94;;;0.63;100.00
36062;BME280;22123;52.412;20.970;2022-11-20T12:06:35;100341.38;;;0.65;100.00
36062;BME280;22123;52.412;20.970;2022-11-20T12:09:03;100343.06;;;0.66;100.00
36062;BME280;22123;52.412;20.970;2022-11-20T12:11:30;100334.16;;;0.67;100.00
36062;BME280;22123;52.412;20.970;2022-11-20T12:14:08;100332.13;;;0.71;100.00
36062;BME280;22123;52.412;20.970;2022-11-20T12:16:36;100340.53;;;0.89;100.00
36062;BME280;22123;52.412;20.970;2022-11-20T12:19:03;100327.22;;;1.01;100.00
36062;BME280;22123;52.412;20.970;2022-11-20T12:21:39;100324.94;;;1.08;100.00
36062;BME280;22123;52.412;20.970;2022-11-20T12:31:54;100307.44;;;0.94;100.00
36062;BME280;22123;52.412;20.970;2022-11-20T12:37:10;100303.94;;;0.69;100.00
36062;BME280;22123;52.412;20.970;2022-11-20T12:39:42;100295.19;;;0.56;100.00
36062;BME280;22123;52.412;20.970;2022-11-20T12:45:21;100299.50;;;0.33;100.00
36062;BME280;22123;52.412;20.970;2022-11-20T12:48:08;100295.09;;;0.21;100.00
36062;BME280;22123;52.412;20.970;2022-11-20T12:53:05;100286.53;;;0.04;100.00
36062;BME280;22123;52.412;20.970;2022-11-20T12:58:06;100297.25;;;0.03;100.00
36062;BME280;22123;52.412;20.970;2022-11-20T13:00:36;100287.50;;;0.03;100.00
36062;BME280;22123;52.412;20.970;2022-11-20T13:10:55;100266.56;;;0.00;100.00
36062;BME280;22123;52.412;20.970;2022-11-20T13:13:23;100260.53;;;-0.02;100.00
36062;BME280;22123;52.412;20.970;2022-11-20T13:18:16;100256.84;;;-0.12;100.00
36062;BME280;22123;52.412;20.970;2022-11-20T13:20:45;100255.56;;;-0.20;100.00
36062;BME280;22123;52.412;20.970;2022-11-20T13:23:24;100257.78;;;-0.26;100.00
36062;BME280;22123;52.412;20.970;2022-11-20T13:25:50;100260.03;;;-0.33;100.00
36062;BME280;22123;52.412;20.970;2022-11-20T13:30:50;100253.06;;;-0.47;100.00
36062;BME280;22123;52.412;20.970;2022-11-20T13:33:35;100256.13;;;-0.53;100.00
36062;BME280;22123;52.412;20.970;2022-11-20T13:38:26;100254.09;;;-0.62;100.00
36062;BME280;22123;52.412;20.970;2022-11-20T13:40:56;100257.81;;;-0.65;100.00
36062;BME280;22123;52.412;20.970;2022-11-20T13:45:58;100253.03;;;-0.73;100.00
36062;BME280;22123;52.412;20.970;2022-11-20T13:48:24;100252.31;;;-0.75;100.00
36062;BME280;22123;52.412;20.970;2022-11-20T13:50:56;100257.91;;;-0.79;100.00
36062;BME280;22123;52.412;20.970;2022-11-20T13:53:36;100236.22;;;-0.84;100.00
36062;BME280;22123;52.412;20.970;2022-11-20T13:58:59;100230.63;;;-0.93;100.00